Time;durP1;ratioP1;P1;durP2;ratioP2;P2;SDS_P1;SDS_P2;PMS_P1;PMS_P2;Temp;Humidity;BMP_temperature;BMP_pressure;BME280_temperature;BME280_humidity;BME280_pressure;Samples;Min_cycle;Max_cycle;Signal;HPM_P1;HPM_P2
2021/06/21 04:51:46;;;;;;;;;;;18.10;99.90;;;;;;5372607;23;19953;-71
2021/06/21 04:54:13;;;;;;;;;;;18.40;99.90;;;;;;4972276;28;20425;-71
2021/06/21 04:56:40;;;;;;;;;;;18.50;99.90;;;;;;4970546;28;20344;-71
2021/06/21 04:59:07;;;;;;;;;;;18.60;99.90;;;;;;4971025;28;20022;-70
2021/06/21 05:01:34;;;;;;;;;;;18.70;99.90;;;;;;4969781;28;19985;-67
2021/06/21 05:04:04;;;;;;;;;;;18.70;99.90;;;;;;4975664;23;19931;-84
2021/06/21 05:06:31;;;;;;;;;;;18.60;99.90;;;;;;4955639;29;19926;-85
2021/06/21 05:08:59;;;;;;;;;;;18.60;99.90;;;;;;4938341;29;20072;-84
2021/06/21 05:11:27;;;;;;;;;;;18.60;99.90;;;;;;4936813;29;19927;-85
2021/06/21 05:13:55;;;;;;;;;;;18.80;99.90;;;;;;4940506;28;20373;-84
2021/06/21 05:16:22;;;;;;;;;;;18.80;99.90;;;;;;4954674;28;19931;-84
2021/06/21 05:18:49;;;;;;;;;;;19.00;99.90;;;;;;4950293;28;19986;-84
2021/06/21 05:21:16;;;;;;;;;;;19.00;99.90;;;;;;4919918;29;19926;-84
2021/06/21 05:23:43;;;;;;;;;;;19.20;99.90;;;;;;4931714;29;19934;-87
2021/06/21 05:26:12;;;;;;;;;;;19.40;99.90;;;;;;4932780;29;20361;-88
2021/06/21 05:28:44;;;;;;;;;;;19.60;99.90;;;;;;4936192;29;19930;-88
2021/06/21 05:31:37;;;;;;;;;;;19.90;99.90;;;;;;4946560;28;20390;-87
2021/06/21 05:34:12;;;;;;;;;;;20.30;99.90;;;;;;4948744;29;19973;-89
2021/06/21 05:36:42;;;;;;;;;;;20.50;99.90;;;;;;4953089;28;20435;-88
2021/06/21 05:39:12;;;;;;;;;;;21.10;99.90;;;;;;4954548;28;19927;-87
2021/06/21 05:41:43;;;;;;;;;;;21.50;99.90;;;;;;4954558;28;20058;-89
2021/06/21 05:44:23;;;;;;;;;;;21.30;99.90;;;;;;4944721;28;19930;-89
2021/06/21 05:47:14;;;;;;;;;;;21.00;99.90;;;;;;4947223;29;19930;-89
2021/06/21 05:50:25;;;;;;;;;;;21.20;99.90;;;;;;4940962;29;19937;-89
2021/06/21 05:56:55;;;;;;;;;;;21.50;99.90;;;;;;4954471;29;19970;-88
2021/06/21 06:06:59;;;;;;;;;;;22.50;99.90;;;;;;4935878;28;19927;-88
2021/06/21 06:13:16;;;;;;;;;;;22.50;99.90;;;;;;4954725;29;19969;-88
2021/06/21 06:19:08;;;;;;;;;;;22.50;99.90;;;;;;4954856;29;19949;-90
2021/06/21 06:21:37;;;;;;;;;;;23.50;99.90;;;;;;4903468;28;19962;-87
2021/06/21 06:24:04;;;;;;;;;;;23.60;99.90;;;;;;4963949;28;19927;-89
2021/06/21 06:26:48;;;;;;;;;;;22.90;99.90;;;;;;4954420;28;20467;-88
2021/06/21 06:39:23;;;;;;;;;;;23.80;99.90;;;;;;4947071;28;19930;-88
2021/06/21 06:42:39;;;;;;;;;;;23.40;99.90;;;;;;4947464;28;20390;-88
2021/06/21 06:45:31;;;;;;;;;;;23.40;99.90;;;;;;4914002;28;19964;-88
2021/06/21 06:50:55;;;;;;;;;;;22.30;99.90;;;;;;4938904;29;19978;-86
2021/06/21 06:59:36;;;;;;;;;;;21.90;99.90;;;;;;4929228;29;19926;-86
2021/06/21 07:02:08;;;;;;;;;;;22.00;99.90;;;;;;4933375;28;20371;-88
2021/06/21 07:22:22;;;;;;;;;;;23.50;99.90;;;;;;4947020;23;19934;-68
2021/06/21 07:24:51;;;;;;;;;;;24.30;99.90;;;;;;4951408;28;20036;-69
2021/06/21 07:27:18;;;;;;;;;;;23.30;99.90;;;;;;4957853;28;19926;-69
2021/06/21 07:29:45;;;;;;;;;;;23.40;99.90;;;;;;4956595;28;19926;-68
2021/06/21 07:32:12;;;;;;;;;;;23.40;99.90;;;;;;4948143;28;19961;-67
2021/06/21 07:34:39;;;;;;;;;;;23.10;99.90;;;;;;4970566;23;19942;-89
2021/06/21 07:37:31;;;;;;;;;;;22.90;99.90;;;;;;4948199;28;19950;-87
2021/06/21 07:39:58;;;;;;;;;;;23.40;99.90;;;;;;4971892;28;19930;-89
2021/06/21 07:45:16;;;;;;;;;;;23.40;99.90;;;;;;4950290;28;19969;-89
2021/06/21 07:48:26;;;;;;;;;;;24.20;99.90;;;;;;4974015;28;19926;-88
2021/06/21 07:54:59;;;;;;;;;;;25.50;99.90;;;;;;4907325;29;20024;-88
2021/06/21 07:57:46;;;;;;;;;;;25.20;99.90;;;;;;4929413;28;19941;-88
2021/06/21 08:00:51;;;;;;;;;;;25.20;99.90;;;;;;4960367;28;19930;-87
2021/06/21 08:03:28;;;;;;;;;;;25.10;99.90;;;;;;4873653;29;19934;-88
2021/06/21 08:05:54;;;;;;;;;;;25.20;99.90;;;;;;4879167;29;19973;-69
2021/06/21 08:08:21;;;;;;;;;;;25.90;99.90;;;;;;4891648;29;20273;-69
2021/06/21 08:10:49;;;;;;;;;;;24.80;99.90;;;;;;4900915;29;19927;-69
2021/06/21 08:13:16;;;;;;;;;;;24.90;99.90;;;;;;4932749;29;20037;-70
2021/06/21 08:15:43;;;;;;;;;;;25.00;99.90;;;;;;4925685;29;19927;-69
2021/06/21 08:20:51;;;;;;;;;;;25.00;99.90;;;;;;4929616;28;20037;-71
2021/06/21 08:23:18;;;;;;;;;;;24.70;99.90;;;;;;4928683;29;20394;-70
2021/06/21 08:25:46;;;;;;;;;;;25.00;99.90;;;;;;4930397;29;19933;-71
2021/06/21 08:28:14;;;;;;;;;;;25.00;99.90;;;;;;4931001;29;20295;-71
2021/06/21 08:30:41;;;;;;;;;;;26.00;99.90;;;;;;4940213;29;19927;-71
2021/06/21 08:33:08;;;;;;;;;;;25.50;99.90;;;;;;4933723;28;19958;-70
2021/06/21 08:35:36;;;;;;;;;;;25.50;99.90;;;;;;4933632;29;19946;-71
2021/06/21 08:38:03;;;;;;;;;;;25.60;99.90;;;;;;4950258;28;20275;-71
2021/06/21 08:40:31;;;;;;;;;;;26.40;99.90;;;;;;4952553;29;19933;-70
2021/06/21 08:42:58;;;;;;;;;;;25.70;99.90;;;;;;4936260;29;19927;-71
2021/06/21 08:45:29;;;;;;;;;;;26.00;99.90;;;;;;4953009;29;20410;-71
2021/06/21 08:47:56;;;;;;;;;;;25.30;99.90;;;;;;4943777;28;19930;-71
2021/06/21 08:50:24;;;;;;;;;;;25.40;99.90;;;;;;4936250;29;20391;-72
2021/06/21 08:52:51;;;;;;;;;;;26.30;99.90;;;;;;4933478;29;20005;-71
2021/06/21 08:55:19;;;;;;;;;;;25.10;99.90;;;;;;4936671;29;19971;-72
2021/06/21 08:57:47;;;;;;;;;;;25.50;99.90;;;;;;4952374;29;19931;-71
2021/06/21 09:00:15;;;;;;;;;;;26.50;99.90;;;;;;4934233;29;20021;-72
2021/06/21 09:02:45;;;;;;;;;;;27.10;99.90;;;;;;4929502;29;19966;-71
2021/06/21 09:05:13;;;;;;;;;;;26.90;99.90;;;;;;4936539;29;20394;-73
2021/06/21 09:07:40;;;;;;;;;;;26.20;99.90;;;;;;4953651;29;19973;-72
2021/06/21 09:10:20;;;;;;;;;;;25.40;99.90;;;;;;4953674;29;20030;-72
2021/06/21 09:12:47;;;;;;;;;;;24.90;99.90;;;;;;4952562;29;20021;-73
2021/06/21 09:15:14;;;;;;;;;;;25.30;99.90;;;;;;4954090;29;19963;-73
2021/06/21 09:17:41;;;;;;;;;;;25.40;99.90;;;;;;4953297;29;19973;-72
2021/06/21 09:20:10;;;;;;;;;;;25.70;99.90;;;;;;4951463;28;19926;-72
2021/06/21 09:22:38;;;;;;;;;;;26.70;99.90;;;;;;4959878;28;19961;-72
2021/06/21 09:25:08;;;;;;;;;;;25.60;99.90;;;;;;4935833;28;19930;-72
2021/06/21 09:27:36;;;;;;;;;;;25.60;99.90;;;;;;4947873;28;19930;-72
2021/06/21 09:30:07;;;;;;;;;;;25.70;99.90;;;;;;4954134;29;19926;-73
2021/06/21 09:32:42;;;;;;;;;;;25.80;99.90;;;;;;4952295;28;19973;-73
2021/06/21 09:35:12;;;;;;;;;;;25.80;99.90;;;;;;4943998;28;19982;-72
2021/06/21 09:37:46;;;;;;;;;;;25.10;99.90;;;;;;4953135;29;20378;-72
2021/06/21 09:40:28;;;;;;;;;;;25.10;99.90;;;;;;4954302;29;20009;-73
2021/06/21 09:42:55;;;;;;;;;;;24.70;99.90;;;;;;4952506;28;19926;-72
2021/06/21 09:45:22;;;;;;;;;;;25.70;99.90;;;;;;4953007;28;20454;-73
2021/06/21 09:47:49;;;;;;;;;;;26.40;99.90;;;;;;4936555;29;20030;-73
2021/06/21 09:50:20;;;;;;;;;;;25.90;99.90;;;;;;4953102;28;20406;-72
2021/06/21 09:52:49;;;;;;;;;;;25.90;99.90;;;;;;4953798;29;19990;-72
2021/06/21 09:55:34;;;;;;;;;;;26.20;99.90;;;;;;4951395;28;19926;-73
2021/06/21 09:58:07;;;;;;;;;;;26.90;99.90;;;;;;4935204;29;20421;-72
2021/06/21 10:00:35;;;;;;;;;;;26.30;99.90;;;;;;4935974;29;20006;-72
2021/06/21 10:03:11;;;;;;;;;;;27.30;99.90;;;;;;4934861;28;19938;-72
2021/06/21 10:05:42;;;;;;;;;;;27.70;99.90;;;;;;4929734;28;19941;-72
2021/06/21 10:08:11;;;;;;;;;;;27.20;99.90;;;;;;4951523;28;19927;-72
2021/06/21 10:10:38;;;;;;;;;;;27.00;99.90;;;;;;4952165;29;20395;-73
2021/06/21 10:13:06;;;;;;;;;;;26.70;99.90;;;;;;4938824;29;19952;-72
2021/06/21 10:15:34;;;;;;;;;;;26.50;99.90;;;;;;4952652;29;19930;-72
2021/06/21 10:18:02;;;;;;;;;;;26.90;99.90;;;;;;4937879;29;19926;-72
2021/06/21 10:20:29;;;;;;;;;;;26.90;99.90;;;;;;4934408;28;19930;-73
2021/06/21 10:23:00;;;;;;;;;;;27.40;99.90;;;;;;4968888;28;19966;-72
2021/06/21 10:25:27;;;;;;;;;;;27.40;99.90;;;;;;4955097;29;19966;-73
2021/06/21 10:27:54;;;;;;;;;;;27.80;99.90;;;;;;4954672;28;20393;-73
2021/06/21 10:30:21;;;;;;;;;;;28.20;99.90;;;;;;4954488;28;20397;-72
2021/06/21 10:32:50;;;;;;;;;;;27.50;99.90;;;;;;4954500;28;19934;-73
2021/06/21 10:35:17;;;;;;;;;;;27.60;99.90;;;;;;4951636;28;20048;-72
2021/06/21 10:37:54;;;;;;;;;;;27.40;99.90;;;;;;4968077;28;19965;-73
2021/06/21 10:40:23;;;;;;;;;;;27.40;99.90;;;;;;4951194;28;19991;-72
2021/06/21 10:42:50;;;;;;;;;;;28.30;99.90;;;;;;4952173;28;20384;-72
2021/06/21 10:45:19;;;;;;;;;;;28.70;99.90;;;;;;4952681;29;20104;-73
2021/06/21 10:47:46;;;;;;;;;;;28.30;99.90;;;;;;4951650;28;20390;-72
2021/06/21 10:50:20;;;;;;;;;;;28.80;99.90;;;;;;4952373;29;20391;-72
2021/06/21 10:52:48;;;;;;;;;;;28.50;99.90;;;;;;4952422;28;19936;-72
2021/06/21 10:55:35;;;;;;;;;;;27.80;99.90;;;;;;4934503;29;20295;-72
2021/06/21 10:58:05;;;;;;;;;;;27.60;99.90;;;;;;4933331;28;20406;-73
2021/06/21 11:00:33;;;;;;;;;;;27.00;99.90;;;;;;4934035;29;19937;-72
2021/06/21 11:03:00;;;;;;;;;;;27.10;99.90;;;;;;4960078;28;19927;-73
2021/06/21 11:05:34;;;;;;;;;;;27.60;99.90;;;;;;4938642;29;20019;-72
2021/06/21 11:08:13;;;;;;;;;;;27.10;99.90;;;;;;4955365;28;19969;-72
2021/06/21 11:10:40;;;;;;;;;;;27.00;99.90;;;;;;4953084;28;19926;-72
2021/06/21 11:13:22;;;;;;;;;;;27.60;99.90;;;;;;4953687;28;20306;-72
2021/06/21 11:16:03;;;;;;;;;;;27.60;99.90;;;;;;4935675;29;19927;-72
2021/06/21 11:18:32;;;;;;;;;;;27.70;99.90;;;;;;4953395;28;19926;-72
2021/06/21 11:21:11;;;;;;;;;;;27.00;99.90;;;;;;4954079;29;19926;-72
2021/06/21 11:23:40;;;;;;;;;;;26.70;99.90;;;;;;4934444;29;20021;-72
2021/06/21 11:26:08;;;;;;;;;;;26.30;99.90;;;;;;4933817;28;19931;-72
2021/06/21 11:28:35;;;;;;;;;;;27.20;99.90;;;;;;4939766;29;20314;-72
2021/06/21 11:31:17;;;;;;;;;;;26.70;99.90;;;;;;4953264;28;19958;-72
2021/06/21 11:33:55;;;;;;;;;;;26.40;99.90;;;;;;4950595;28;19927;-73
2021/06/21 11:36:39;;;;;;;;;;;26.50;99.90;;;;;;4952009;28;19930;-71
2021/06/21 11:39:19;;;;;;;;;;;27.00;99.90;;;;;;4934330;29;20302;-74
2021/06/21 11:41:54;;;;;;;;;;;27.40;99.90;;;;;;4949339;29;19926;-74
2021/06/21 11:44:40;;;;;;;;;;;27.30;99.90;;;;;;4934595;29;20037;-74
2021/06/21 11:47:18;;;;;;;;;;;27.60;99.90;;;;;;4953260;28;20585;-74
2021/06/21 11:49:47;;;;;;;;;;;28.40;99.90;;;;;;4951652;28;20275;-73
2021/06/21 11:52:17;;;;;;;;;;;27.80;99.90;;;;;;4936791;29;20287;-71
2021/06/21 11:54:44;;;;;;;;;;;27.20;99.90;;;;;;4952080;29;19926;-71
2021/06/21 11:57:12;;;;;;;;;;;26.50;99.90;;;;;;4934488;29;19927;-72
2021/06/21 11:59:40;;;;;;;;;;;27.20;99.90;;;;;;4933736;29;19930;-72
2021/06/21 12:02:08;;;;;;;;;;;27.20;99.90;;;;;;4950539;28;20049;-71
2021/06/21 12:04:35;;;;;;;;;;;27.00;99.90;;;;;;4950509;28;19926;-73
2021/06/21 12:07:04;;;;;;;;;;;27.30;99.90;;;;;;4937918;29;19930;-71
2021/06/21 12:09:38;;;;;;;;;;;26.80;99.90;;;;;;4948971;28;19930;-71
2021/06/21 12:12:07;;;;;;;;;;;27.00;99.90;;;;;;4950257;28;19982;-71
2021/06/21 12:14:35;;;;;;;;;;;27.10;99.90;;;;;;4955055;29;19926;-74
2021/06/21 12:17:04;;;;;;;;;;;27.40;99.90;;;;;;4937723;29;19931;-73
2021/06/21 12:19:31;;;;;;;;;;;28.00;99.90;;;;;;4955239;28;19926;-73
2021/06/21 12:21:58;;;;;;;;;;;27.80;99.90;;;;;;4948902;29;20398;-73
2021/06/21 12:24:27;;;;;;;;;;;27.40;99.90;;;;;;4937477;29;19949;-73
2021/06/21 12:26:55;;;;;;;;;;;26.40;99.90;;;;;;4954285;28;20009;-73
2021/06/21 12:29:28;;;;;;;;;;;26.70;99.90;;;;;;4954365;28;19931;-73
2021/06/21 12:31:56;;;;;;;;;;;27.60;99.90;;;;;;4953697;29;19983;-74
2021/06/21 12:34:40;;;;;;;;;;;27.20;99.90;;;;;;4950694;28;19926;-73
2021/06/21 12:37:18;;;;;;;;;;;27.70;99.90;;;;;;4952093;29;19939;-73
2021/06/21 12:39:47;;;;;;;;;;;27.40;99.90;;;;;;4933627;29;19934;-73
2021/06/21 12:42:15;;;;;;;;;;;26.80;99.90;;;;;;4954758;29;19983;-74
2021/06/21 12:44:43;;;;;;;;;;;26.90;99.90;;;;;;4954752;29;19930;-73
2021/06/21 12:47:18;;;;;;;;;;;27.10;99.90;;;;;;4935846;29;19927;-74
2021/06/21 12:49:45;;;;;;;;;;;28.50;99.90;;;;;;4936974;29;19926;-74
2021/06/21 12:52:14;;;;;;;;;;;28.30;99.90;;;;;;4938813;28;19962;-73
2021/06/21 12:54:41;;;;;;;;;;;27.70;99.90;;;;;;4944602;28;19942;-74
2021/06/21 12:57:09;;;;;;;;;;;28.90;99.90;;;;;;4957226;28;19980;-74
2021/06/21 12:59:41;;;;;;;;;;;28.40;99.90;;;;;;4944873;29;19927;-74
2021/06/21 13:02:18;;;;;;;;;;;27.50;99.90;;;;;;4962750;28;19935;-74
2021/06/21 13:04:55;;;;;;;;;;;27.60;99.90;;;;;;4952022;28;20061;-73
2021/06/21 13:07:24;;;;;;;;;;;27.90;99.90;;;;;;4951412;28;19973;-73
2021/06/21 13:09:54;;;;;;;;;;;27.40;99.90;;;;;;4954404;28;20309;-73
2021/06/21 13:12:24;;;;;;;;;;;27.90;99.90;;;;;;4973620;28;20157;-73
2021/06/21 13:14:53;;;;;;;;;;;27.80;99.90;;;;;;4973649;28;20287;-73
2021/06/21 13:17:21;;;;;;;;;;;27.50;99.90;;;;;;4954128;28;19927;-73
2021/06/21 13:19:52;;;;;;;;;;;27.60;99.90;;;;;;4943047;29;19987;-73
2021/06/21 13:22:26;;;;;;;;;;;27.30;99.90;;;;;;4953967;29;20026;-73
2021/06/21 13:24:53;;;;;;;;;;;28.20;99.90;;;;;;4954156;29;20341;-73
2021/06/21 13:27:24;;;;;;;;;;;28.50;99.90;;;;;;4938378;28;19994;-73
2021/06/21 13:29:52;;;;;;;;;;;28.50;99.90;;;;;;4952704;28;19950;-73
2021/06/21 13:32:21;;;;;;;;;;;28.40;99.90;;;;;;4952338;28;19977;-73
2021/06/21 13:34:50;;;;;;;;;;;27.90;99.90;;;;;;4934389;29;19935;-73
2021/06/21 13:37:27;;;;;;;;;;;27.80;99.90;;;;;;4953219;28;19931;-73
2021/06/21 13:39:55;;;;;;;;;;;28.00;99.90;;;;;;4952171;28;19989;-73
2021/06/21 13:42:36;;;;;;;;;;;28.60;99.90;;;;;;4935342;29;19926;-74
2021/06/21 13:45:07;;;;;;;;;;;29.30;99.90;;;;;;4952998;28;19978;-74
2021/06/21 13:47:35;;;;;;;;;;;29.60;99.90;;;;;;4953385;29;20417;-74
2021/06/21 13:50:04;;;;;;;;;;;29.90;99.90;;;;;;4952778;28;20507;-73
2021/06/21 13:52:38;;;;;;;;;;;30.30;99.00;;;;;;4943285;29;19926;-73
2021/06/21 13:55:07;;;;;;;;;;;29.60;99.00;;;;;;4935559;29;19933;-74
2021/06/21 13:57:40;;;;;;;;;;;28.90;99.70;;;;;;4951470;28;20275;-73
2021/06/21 14:00:09;;;;;;;;;;;28.50;99.90;;;;;;4949415;29;19927;-73
2021/06/21 14:02:40;;;;;;;;;;;28.60;99.90;;;;;;4951828;28;19941;-73
2021/06/21 14:05:08;;;;;;;;;;;29.00;99.90;;;;;;4949252;29;19930;-74
2021/06/21 14:07:36;;;;;;;;;;;29.50;99.90;;;;;;4951178;28;20398;-74
2021/06/21 14:10:06;;;;;;;;;;;29.90;99.40;;;;;;4927785;29;19931;-74
2021/06/21 14:12:34;;;;;;;;;;;30.10;98.70;;;;;;4935249;29;20407;-74
2021/06/21 14:15:03;;;;;;;;;;;29.40;99.30;;;;;;4935466;29;19933;-74
2021/06/21 14:17:30;;;;;;;;;;;29.70;99.30;;;;;;4952123;28;19934;-74
2021/06/21 14:19:58;;;;;;;;;;;29.90;97.90;;;;;;4995954;23;19937;-71
2021/06/21 14:22:25;;;;;;;;;;;29.90;98.30;;;;;;4988370;28;19938;-71
2021/06/21 14:24:52;;;;;;;;;;;29.20;98.90;;;;;;4973859;28;19925;-70
2021/06/21 14:27:18;;;;;;;;;;;29.30;98.70;;;;;;4991676;28;19958;-71
2021/06/21 14:29:46;;;;;;;;;;;28.60;99.30;;;;;;4991091;28;19925;-71
2021/06/21 14:32:14;;;;;;;;;;;28.60;99.90;;;;;;4988076;28;19980;-70
2021/06/21 14:34:41;;;;;;;;;;;29.10;99.40;;;;;;4978624;28;20420;-70
2021/06/21 14:37:07;;;;;;;;;;;29.80;98.80;;;;;;4989623;28;19957;-70
2021/06/21 14:39:34;;;;;;;;;;;29.70;98.40;;;;;;4991131;28;19953;-71
2021/06/21 14:42:01;;;;;;;;;;;29.50;98.70;;;;;;4991717;28;19957;-70
2021/06/21 14:44:28;;;;;;;;;;;29.00;98.80;;;;;;4993803;28;19930;-71
2021/06/21 14:46:55;;;;;;;;;;;29.30;98.30;;;;;;4989890;28;20457;-71
2021/06/21 14:49:23;;;;;;;;;;;29.10;98.80;;;;;;5004804;28;20115;-71
2021/06/21 14:51:50;;;;;;;;;;;29.00;98.10;;;;;;4989774;28;19997;-71
2021/06/21 14:54:18;;;;;;;;;;;29.10;98.60;;;;;;5008489;28;19945;-70
2021/06/21 14:56:45;;;;;;;;;;;29.40;98.10;;;;;;5006576;28;19925;-69
2021/06/21 14:59:12;;;;;;;;;;;29.10;97.70;;;;;;5010670;28;19914;-70
2021/06/21 15:01:38;;;;;;;;;;;28.90;98.10;;;;;;5010492;28;19941;-71
2021/06/21 15:04:05;;;;;;;;;;;28.70;97.80;;;;;;4989763;28;19941;-69
2021/06/21 15:06:33;;;;;;;;;;;28.60;98.30;;;;;;5007807;28;19946;-72
2021/06/21 15:09:00;;;;;;;;;;;28.60;98.40;;;;;;4989055;28;20424;-68
2021/06/21 15:11:28;;;;;;;;;;;28.20;99.90;;;;;;5005563;28;20106;-68
2021/06/21 15:13:55;;;;;;;;;;;28.30;99.90;;;;;;5002379;28;19925;-69
2021/06/21 15:16:22;;;;;;;;;;;28.00;99.90;;;;;;5000828;28;19926;-70
2021/06/21 15:18:49;;;;;;;;;;;27.40;99.90;;;;;;4997650;28;19918;-70
2021/06/21 15:21:16;;;;;;;;;;;27.30;99.90;;;;;;4999243;28;20179;-70
2021/06/21 15:23:44;;;;;;;;;;;27.00;99.90;;;;;;4988172;28;19980;-70
2021/06/21 15:26:11;;;;;;;;;;;27.00;99.90;;;;;;4967184;28;20016;-71
2021/06/21 15:28:38;;;;;;;;;;;27.20;99.90;;;;;;4966726;28;19929;-70
2021/06/21 15:31:05;;;;;;;;;;;26.90;99.90;;;;;;4979989;28;19934;-70
2021/06/21 15:33:34;;;;;;;;;;;27.10;99.90;;;;;;4964364;28;19934;-71
2021/06/21 15:36:00;;;;;;;;;;;27.00;99.90;;;;;;4980147;28;19926;-70
2021/06/21 15:38:27;;;;;;;;;;;27.20;99.90;;;;;;4981325;28;19976;-70
2021/06/21 15:40:55;;;;;;;;;;;27.20;99.90;;;;;;4986070;28;20489;-73
2021/06/21 15:43:22;;;;;;;;;;;27.00;99.90;;;;;;4986852;28;20282;-72
2021/06/21 15:45:49;;;;;;;;;;;26.60;99.90;;;;;;4986400;28;20017;-72
2021/06/21 15:48:16;;;;;;;;;;;26.50;99.90;;;;;;4985870;28;19936;-71
2021/06/21 15:50:43;;;;;;;;;;;26.50;99.90;;;;;;4970360;28;20355;-69
2021/06/21 15:53:09;;;;;;;;;;;26.50;99.90;;;;;;4991958;28;20275;-69
2021/06/21 15:55:39;;;;;;;;;;;26.50;99.90;;;;;;4985815;28;20129;-69
2021/06/21 15:58:08;;;;;;;;;;;26.40;99.90;;;;;;4986458;28;20402;-72
2021/06/21 16:00:36;;;;;;;;;;;26.30;99.90;;;;;;4967450;28;19957;-71
2021/06/21 16:03:03;;;;;;;;;;;26.30;99.90;;;;;;4984615;28;19936;-71
2021/06/21 16:05:31;;;;;;;;;;;26.20;99.90;;;;;;4981433;28;20444;-70
2021/06/21 16:07:58;;;;;;;;;;;26.30;99.90;;;;;;4978742;28;19930;-70
2021/06/21 16:10:25;;;;;;;;;;;26.20;99.90;;;;;;4983758;28;19977;-70
2021/06/21 16:12:52;;;;;;;;;;;26.30;99.90;;;;;;4983077;28;20109;-71
2021/06/21 16:15:21;;;;;;;;;;;26.20;99.90;;;;;;4984130;28;19938;-70
2021/06/21 16:17:48;;;;;;;;;;;26.30;99.90;;;;;;4986161;28;19940;-70
2021/06/21 16:20:15;;;;;;;;;;;26.20;99.90;;;;;;4983870;28;20440;-70
2021/06/21 16:22:43;;;;;;;;;;;26.20;99.90;;;;;;4969692;28;20405;-70
2021/06/21 16:25:10;;;;;;;;;;;26.10;99.90;;;;;;4983782;28;19933;-71
2021/06/21 16:27:37;;;;;;;;;;;26.10;99.90;;;;;;4984394;28;20329;-70
2021/06/21 16:30:05;;;;;;;;;;;26.00;99.90;;;;;;4984439;28;19929;-71
2021/06/21 16:32:33;;;;;;;;;;;25.80;99.90;;;;;;4984731;28;19936;-70
2021/06/21 16:35:00;;;;;;;;;;;25.60;99.90;;;;;;4983399;28;20020;-71
2021/06/21 16:37:27;;;;;;;;;;;25.60;99.90;;;;;;4976817;28;19952;-70
2021/06/21 16:39:55;;;;;;;;;;;25.30;99.90;;;;;;4992056;28;20016;-70
2021/06/21 16:42:22;;;;;;;;;;;25.20;99.90;;;;;;4992634;28;20167;-70
2021/06/21 16:44:49;;;;;;;;;;;25.10;99.90;;;;;;4988845;28;19972;-71
2021/06/21 16:47:16;;;;;;;;;;;25.10;99.90;;;;;;4970931;28;20361;-72
2021/06/21 16:49:44;;;;;;;;;;;24.90;99.90;;;;;;4992858;28;20185;-71
2021/06/21 16:52:11;;;;;;;;;;;24.80;99.90;;;;;;4990724;28;20175;-70
2021/06/21 16:54:38;;;;;;;;;;;24.90;99.90;;;;;;4992941;28;19934;-70
2021/06/21 16:57:05;;;;;;;;;;;24.90;99.90;;;;;;4972599;28;19926;-72
2021/06/21 16:59:32;;;;;;;;;;;24.50;99.90;;;;;;4991459;28;19941;-73
2021/06/21 17:01:59;;;;;;;;;;;24.60;99.90;;;;;;4983292;28;19930;-72
2021/06/21 17:04:26;;;;;;;;;;;24.60;99.90;;;;;;4982200;28;20046;-71
2021/06/21 17:06:54;;;;;;;;;;;24.70;99.90;;;;;;4986875;28;20100;-71
2021/06/21 17:09:21;;;;;;;;;;;24.60;99.90;;;;;;4983556;28;19929;-71
2021/06/21 17:11:48;;;;;;;;;;;24.50;99.90;;;;;;4984117;28;19926;-72
2021/06/21 17:14:14;;;;;;;;;;;24.20;99.90;;;;;;4981686;28;20027;-72
2021/06/21 17:16:41;;;;;;;;;;;24.20;99.90;;;;;;4983643;28;20029;-71
2021/06/21 17:19:08;;;;;;;;;;;24.00;99.90;;;;;;4985146;28;20274;-72
2021/06/21 17:21:35;;;;;;;;;;;24.00;99.90;;;;;;4983153;28;19980;-71
2021/06/21 17:24:03;;;;;;;;;;;23.60;99.90;;;;;;4968559;28;19926;-71
2021/06/21 17:26:30;;;;;;;;;;;23.40;99.90;;;;;;4987037;28;20020;-70
2021/06/21 17:28:59;;;;;;;;;;;23.40;99.90;;;;;;4991156;28;19933;-73
2021/06/21 17:31:27;;;;;;;;;;;23.30;99.90;;;;;;4986899;28;19932;-71
2021/06/21 17:33:53;;;;;;;;;;;23.00;99.90;;;;;;4992020;28;19930;-71
2021/06/21 17:36:21;;;;;;;;;;;22.80;99.90;;;;;;4991578;28;20372;-70
2021/06/21 17:38:48;;;;;;;;;;;22.80;99.90;;;;;;4991153;28;19941;-70
2021/06/21 17:41:16;;;;;;;;;;;22.80;99.90;;;;;;4991944;28;20364;-70
2021/06/21 17:43:43;;;;;;;;;;;22.70;99.90;;;;;;4991629;28;19976;-71
2021/06/21 17:46:10;;;;;;;;;;;22.70;99.90;;;;;;4991678;28;19926;-71
2021/06/21 17:48:37;;;;;;;;;;;22.40;99.90;;;;;;4992169;28;19961;-70
2021/06/21 17:51:04;;;;;;;;;;;22.40;99.90;;;;;;4991721;28;20321;-70
2021/06/21 17:53:31;;;;;;;;;;;22.30;99.90;;;;;;4992591;28;19965;-70
2021/06/21 17:55:58;;;;;;;;;;;22.20;99.90;;;;;;4983130;28;19925;-71
2021/06/21 17:58:26;;;;;;;;;;;22.10;99.90;;;;;;4991260;28;20353;-70
2021/06/21 18:00:55;;;;;;;;;;;22.00;99.90;;;;;;4991618;28;20005;-72
2021/06/21 18:03:22;;;;;;;;;;;22.00;99.90;;;;;;4977620;28;19927;-71
2021/06/21 18:05:49;;;;;;;;;;;21.90;99.90;;;;;;4973920;28;19934;-71
2021/06/21 18:08:16;;;;;;;;;;;21.90;99.90;;;;;;4991111;28;19926;-71
2021/06/21 18:10:43;;;;;;;;;;;21.80;99.90;;;;;;4972646;28;20417;-70
2021/06/21 18:13:10;;;;;;;;;;;21.90;99.90;;;;;;4985092;28;20059;-71
2021/06/21 18:15:38;;;;;;;;;;;22.00;99.90;;;;;;4990548;28;19983;-72
2021/06/21 18:18:06;;;;;;;;;;;21.90;99.90;;;;;;4989991;28;20023;-71
2021/06/21 18:20:33;;;;;;;;;;;21.70;99.90;;;;;;4988992;28;19965;-71
2021/06/21 18:23:01;;;;;;;;;;;21.70;99.90;;;;;;4986422;28;19930;-72
2021/06/21 18:25:28;;;;;;;;;;;21.60;99.90;;;;;;4993376;28;20056;-72
2021/06/21 18:27:56;;;;;;;;;;;21.60;99.90;;;;;;4993460;28;20016;-72
2021/06/21 18:30:24;;;;;;;;;;;21.30;99.90;;;;;;5001031;28;19979;-71
2021/06/21 18:32:52;;;;;;;;;;;21.20;99.90;;;;;;4972537;28;20385;-71
2021/06/21 18:35:19;;;;;;;;;;;21.00;99.90;;;;;;4990030;28;19934;-70
2021/06/21 18:37:46;;;;;;;;;;;20.90;99.90;;;;;;4990238;28;20377;-70
2021/06/21 18:40:13;;;;;;;;;;;20.90;99.90;;;;;;4990119;28;20420;-71
2021/06/21 18:42:41;;;;;;;;;;;20.70;99.90;;;;;;4993823;28;19926;-72
2021/06/21 18:45:08;;;;;;;;;;;20.70;99.90;;;;;;4989474;28;20409;-71
2021/06/21 18:47:35;;;;;;;;;;;20.60;99.90;;;;;;4989756;28;20405;-71
2021/06/21 18:50:04;;;;;;;;;;;20.50;99.90;;;;;;4979033;28;20032;-71
2021/06/21 18:52:31;;;;;;;;;;;20.40;99.90;;;;;;4989706;28;19926;-72
2021/06/21 18:54:57;;;;;;;;;;;20.40;99.90;;;;;;4990671;28;19932;-72
2021/06/21 18:57:24;;;;;;;;;;;20.20;99.90;;;;;;4989785;28;19926;-71
2021/06/21 18:59:52;;;;;;;;;;;20.10;99.90;;;;;;4972028;28;20033;-71
2021/06/21 19:02:19;;;;;;;;;;;20.10;99.90;;;;;;4991197;28;20405;-72
2021/06/21 19:04:46;;;;;;;;;;;20.10;99.90;;;;;;4990376;28;20029;-71
2021/06/21 19:07:14;;;;;;;;;;;20.10;99.90;;;;;;4990533;28;19933;-71
2021/06/21 19:09:41;;;;;;;;;;;20.00;99.90;;;;;;4990402;28;19966;-73
2021/06/21 19:12:08;;;;;;;;;;;19.90;99.90;;;;;;4990812;28;20456;-72
2021/06/21 19:14:35;;;;;;;;;;;19.80;99.90;;;;;;4988506;28;19992;-72
2021/06/21 19:17:01;;;;;;;;;;;19.80;99.90;;;;;;4988434;28;20301;-72
2021/06/21 19:19:29;;;;;;;;;;;19.80;99.90;;;;;;4990549;28;19936;-72
2021/06/21 19:21:57;;;;;;;;;;;19.70;99.90;;;;;;4989538;28;19926;-73
2021/06/21 19:24:26;;;;;;;;;;;19.70;99.90;;;;;;4980298;28;19961;-72
2021/06/21 19:26:52;;;;;;;;;;;19.60;99.90;;;;;;4990028;28;19948;-72
2021/06/21 19:29:19;;;;;;;;;;;19.60;99.90;;;;;;4970468;28;20052;-73
2021/06/21 19:31:47;;;;;;;;;;;19.40;99.90;;;;;;4988941;28;19926;-73
2021/06/21 19:34:14;;;;;;;;;;;19.40;99.90;;;;;;4988871;28;20361;-73
2021/06/21 19:36:41;;;;;;;;;;;19.30;99.90;;;;;;4990703;28;20293;-73
2021/06/21 19:39:08;;;;;;;;;;;19.30;99.90;;;;;;4990367;28;19972;-74
2021/06/21 19:41:40;;;;;;;;;;;19.20;99.90;;;;;;4989888;28;19965;-74
2021/06/21 19:44:07;;;;;;;;;;;19.20;99.90;;;;;;4990276;28;19926;-73
2021/06/21 19:46:33;;;;;;;;;;;19.10;99.90;;;;;;4971081;28;19930;-73
2021/06/21 19:49:00;;;;;;;;;;;18.90;99.90;;;;;;4971113;28;19933;-73
2021/06/21 19:51:27;;;;;;;;;;;18.80;99.90;;;;;;4971230;28;19933;-73
2021/06/21 19:53:54;;;;;;;;;;;18.90;99.90;;;;;;4971325;28;19937;-74
2021/06/21 19:56:21;;;;;;;;;;;18.90;99.90;;;;;;4953843;28;20025;-74
2021/06/21 19:58:51;;;;;;;;;;;18.80;99.90;;;;;;4982254;28;19965;-73
2021/06/21 20:01:18;;;;;;;;;;;18.80;99.90;;;;;;4988634;28;19929;-73
2021/06/21 20:03:45;;;;;;;;;;;18.70;99.90;;;;;;4971727;28;20025;-72
2021/06/21 20:06:12;;;;;;;;;;;18.80;99.90;;;;;;4990362;28;19926;-74
2021/06/21 20:08:39;;;;;;;;;;;18.70;99.90;;;;;;4987627;28;20351;-74
2021/06/21 20:11:06;;;;;;;;;;;18.70;99.90;;;;;;4989115;28;19926;-73
2021/06/21 20:13:34;;;;;;;;;;;18.70;99.90;;;;;;4988522;28;19926;-73
2021/06/21 20:16:02;;;;;;;;;;;18.70;99.90;;;;;;4987283;28;19972;-75
2021/06/21 20:18:29;;;;;;;;;;;18.60;99.90;;;;;;4988890;28;19930;-75
2021/06/21 20:20:56;;;;;;;;;;;18.60;99.90;;;;;;4957568;23;19975;-73
2021/06/21 20:23:23;;;;;;;;;;;18.60;99.90;;;;;;4915239;29;19927;-74
2021/06/21 20:25:50;;;;;;;;;;;18.60;99.90;;;;;;4950811;28;19926;-73